sensor_id;sensor_type;location;lat;lon;timestamp;temperature;humidity
30336;DHT22;17142;47.990;7.846;2024-03-23T06:38:57;10.00;99.90
30336;DHT22;17142;47.990;7.846;2024-03-23T06:41:25;9.20;99.90
30336;DHT22;17142;47.990;7.846;2024-03-23T06:43:51;9.00;99.90
30336;DHT22;17142;47.990;7.846;2024-03-23T06:46:17;8.90;99.90
30336;DHT22;17142;47.990;7.846;2024-03-23T06:48:45;9.00;99.90
30336;DHT22;17142;47.990;7.846;2024-03-23T06:51:10;9.10;99.90
30336;DHT22;17142;47.990;7.846;2024-03-23T06:53:36;9.10;99.90
30336;DHT22;17142;47.990;7.846;2024-03-23T06:56:02;9.10;99.90
30336;DHT22;17142;47.990;7.846;2024-03-23T06:58:27;9.10;99.90
30336;DHT22;17142;47.990;7.846;2024-03-23T07:00:53;9.20;99.90
30336;DHT22;17142;47.990;7.846;2024-03-23T07:03:21;9.30;99.90
30336;DHT22;17142;47.990;7.846;2024-03-23T07:05:47;9.20;99.90
30336;DHT22;17142;47.990;7.846;2024-03-23T07:08:13;9.20;99.90
30336;DHT22;17142;47.990;7.846;2024-03-23T07:10:41;9.20;99.90
30336;DHT22;17142;47.990;7.846;2024-03-23T07:13:09;9.30;99.90
30336;DHT22;17142;47.990;7.846;2024-03-23T07:15:37;9.40;99.90
30336;DHT22;17142;47.990;7.846;2024-03-23T07:18:03;9.40;99.90
30336;DHT22;17142;47.990;7.846;2024-03-23T07:20:31;9.40;99.90
30336;DHT22;17142;47.990;7.846;2024-03-23T07:22:57;9.50;99.90
30336;DHT22;17142;47.990;7.846;2024-03-23T07:25:25;9.40;99.90
30336;DHT22;17142;47.990;7.846;2024-03-23T07:27:55;9.40;99.90
30336;DHT22;17142;47.990;7.846;2024-03-23T07:30:24;9.40;99.90
30336;DHT22;17142;47.990;7.846;2024-03-23T07:32:50;9.50;99.90
30336;DHT22;17142;47.990;7.846;2024-03-23T07:35:16;9.40;99.90
30336;DHT22;17142;47.990;7.846;2024-03-23T07:37:42;9.40;99.90
30336;DHT22;17142;47.990;7.846;2024-03-23T07:40:08;9.40;99.90
30336;DHT22;17142;47.990;7.846;2024-03-23T07:42:33;9.40;99.90
30336;DHT22;17142;47.990;7.846;2024-03-23T07:45:01;9.40;99.90
30336;DHT22;17142;47.990;7.846;2024-03-23T07:47:27;9.40;99.90
30336;DHT22;17142;47.990;7.846;2024-03-23T07:49:52;9.40;99.90
30336;DHT22;17142;47.990;7.846;2024-03-23T07:52:18;9.30;99.90
30336;DHT22;17142;47.990;7.846;2024-03-23T07:54:46;9.30;99.90
30336;DHT22;17142;47.990;7.846;2024-03-23T07:57:12;9.20;99.90
30336;DHT22;17142;47.990;7.846;2024-03-23T07:59:39;9.20;99.90
30336;DHT22;17142;47.990;7.846;2024-03-23T08:02:05;9.10;99.90
30336;DHT22;17142;47.990;7.846;2024-03-23T08:04:31;9.10;99.90
30336;DHT22;17142;47.990;7.846;2024-03-23T08:06:56;9.10;99.90
30336;DHT22;17142;47.990;7.846;2024-03-23T08:09:22;9.10;99.90
30336;DHT22;17142;47.990;7.846;2024-03-23T08:11:48;9.10;99.90
30336;DHT22;17142;47.990;7.846;2024-03-23T08:14:13;9.00;99.90
30336;DHT22;17142;47.990;7.846;2024-03-23T08:16:41;9.00;99.90
30336;DHT22;17142;47.990;7.846;2024-03-23T08:19:14;9.00;99.90
30336;DHT22;17142;47.990;7.846;2024-03-23T08:21:39;9.00;99.90
30336;DHT22;17142;47.990;7.846;2024-03-23T08:24:10;9.00;99.90
30336;DHT22;17142;47.990;7.846;2024-03-23T08:26:38;9.00;99.90
30336;DHT22;17142;47.990;7.846;2024-03-23T08:29:06;8.90;99.90
30336;DHT22;17142;47.990;7.846;2024-03-23T08:31:32;9.00;99.90
30336;DHT22;17142;47.990;7.846;2024-03-23T08:33:58;9.50;99.90
30336;DHT22;17142;47.990;7.846;2024-03-23T08:36:23;9.80;99.90
30336;DHT22;17142;47.990;7.846;2024-03-23T08:38:49;9.80;99.90
30336;DHT22;17142;47.990;7.846;2024-03-23T08:41:16;9.70;99.90
30336;DHT22;17142;47.990;7.846;2024-03-23T08:43:42;9.80;99.90
30336;DHT22;17142;47.990;7.846;2024-03-23T08:46:16;9.70;99.90
30336;DHT22;17142;47.990;7.846;2024-03-23T08:48:43;9.80;99.90
30336;DHT22;17142;47.990;7.846;2024-03-23T08:51:10;9.90;99.90
30336;DHT22;17142;47.990;7.846;2024-03-23T08:53:39;9.90;99.90
30336;DHT22;17142;47.990;7.846;2024-03-23T08:56:06;9.80;99.90
30336;DHT22;17142;47.990;7.846;2024-03-23T08:58:32;10.00;99.90
30336;DHT22;17142;47.990;7.846;2024-03-23T09:01:08;10.10;99.90
30336;DHT22;17142;47.990;7.846;2024-03-23T09:03:37;10.20;99.90
30336;DHT22;17142;47.990;7.846;2024-03-23T09:06:10;10.20;99.90
30336;DHT22;17142;47.990;7.846;2024-03-23T09:08:37;10.30;99.90
30336;DHT22;17142;47.990;7.846;2024-03-23T09:11:09;10.40;99.90
30336;DHT22;17142;47.990;7.846;2024-03-23T09:13:36;10.40;99.90
30336;DHT22;17142;47.990;7.846;2024-03-23T09:16:02;10.40;99.90
30336;DHT22;17142;47.990;7.846;2024-03-23T09:18:31;10.00;99.90
30336;DHT22;17142;47.990;7.846;2024-03-23T09:20:59;9.90;99.90
30336;DHT22;17142;47.990;7.846;2024-03-23T09:23:24;10.00;99.90
30336;DHT22;17142;47.990;7.846;2024-03-23T09:25:53;10.00;99.90
30336;DHT22;17142;47.990;7.846;2024-03-23T09:28:21;9.90;99.90
30336;DHT22;17142;47.990;7.846;2024-03-23T09:30:47;9.80;99.90
30336;DHT22;17142;47.990;7.846;2024-03-23T09:33:13;9.70;99.90
30336;DHT22;17142;47.990;7.846;2024-03-23T09:35:43;9.70;99.90
30336;DHT22;17142;47.990;7.846;2024-03-23T09:38:12;9.90;99.90
30336;DHT22;17142;47.990;7.846;2024-03-23T09:40:41;10.20;99.90
30336;DHT22;17142;47.990;7.846;2024-03-23T09:43:12;10.60;99.90
30336;DHT22;17142;47.990;7.846;2024-03-23T09:45:41;11.00;99.90
30336;DHT22;17142;47.990;7.846;2024-03-23T09:48:11;11.20;99.90
30336;DHT22;17142;47.990;7.846;2024-03-23T09:50:41;11.20;99.90
30336;DHT22;17142;47.990;7.846;2024-03-23T09:53:08;11.30;99.90
30336;DHT22;17142;47.990;7.846;2024-03-23T09:55:36;11.50;99.90
30336;DHT22;17142;47.990;7.846;2024-03-23T09:58:03;11.60;99.90
30336;DHT22;17142;47.990;7.846;2024-03-23T10:00:33;11.80;99.90
30336;DHT22;17142;47.990;7.846;2024-03-23T10:03:00;11.70;99.90
30336;DHT22;17142;47.990;7.846;2024-03-23T10:05:32;11.70;99.90
30336;DHT22;17142;47.990;7.846;2024-03-23T10:08:00;11.90;99.90
30336;DHT22;17142;47.990;7.846;2024-03-23T10:10:42;11.40;99.90
30336;DHT22;17142;47.990;7.846;2024-03-23T10:13:08;11.00;99.90
30336;DHT22;17142;47.990;7.846;2024-03-23T10:15:35;10.80;99.90
30336;DHT22;17142;47.990;7.846;2024-03-23T10:18:19;10.50;99.90
30336;DHT22;17142;47.990;7.846;2024-03-23T10:21:10;10.40;99.90
30336;DHT22;17142;47.990;7.846;2024-03-23T10:23:39;10.30;99.90
30336;DHT22;17142;47.990;7.846;2024-03-23T10:26:20;10.20;99.90
30336;DHT22;17142;47.990;7.846;2024-03-23T10:29:00;10.10;99.90
30336;DHT22;17142;47.990;7.846;2024-03-23T10:31:30;10.00;99.90
30336;DHT22;17142;47.990;7.846;2024-03-23T10:33:56;10.00;99.90
30336;DHT22;17142;47.990;7.846;2024-03-23T10:36:23;10.00;99.90
30336;DHT22;17142;47.990;7.846;2024-03-23T10:38:50;9.10;99.90
30336;DHT22;17142;47.990;7.846;2024-03-23T10:41:19;8.30;99.90
30336;DHT22;17142;47.990;7.846;2024-03-23T10:43:46;7.90;99.90
30336;DHT22;17142;47.990;7.846;2024-03-23T10:46:15;7.40;99.90
30336;DHT22;17142;47.990;7.846;2024-03-23T10:48:44;7.20;99.90
30336;DHT22;17142;47.990;7.846;2024-03-23T10:51:10;6.80;99.90
30336;DHT22;17142;47.990;7.846;2024-03-23T10:53:36;6.60;99.90
30336;DHT22;17142;47.990;7.846;2024-03-23T10:56:02;6.30;99.90
30336;DHT22;17142;47.990;7.846;2024-03-23T10:58:35;6.40;99.90
30336;DHT22;17142;47.990;7.846;2024-03-23T11:01:03;6.40;99.90
30336;DHT22;17142;47.990;7.846;2024-03-23T11:03:35;6.50;99.90
30336;DHT22;17142;47.990;7.846;2024-03-23T11:06:04;6.60;99.90
30336;DHT22;17142;47.990;7.846;2024-03-23T11:13:39;7.60;99.90
30336;DHT22;17142;47.990;7.846;2024-03-23T11:16:26;7.80;99.90
30336;DHT22;17142;47.990;7.846;2024-03-23T11:19:35;7.90;99.90
30336;DHT22;17142;47.990;7.846;2024-03-23T11:22:02;8.10;99.90
30336;DHT22;17142;47.990;7.846;2024-03-23T11:24:28;8.30;99.90
30336;DHT22;17142;47.990;7.846;2024-03-23T11:26:56;8.50;99.90
30336;DHT22;17142;47.990;7.846;2024-03-23T11:29:25;8.60;99.90
30336;DHT22;17142;47.990;7.846;2024-03-23T11:31:52;8.90;99.90
30336;DHT22;17142;47.990;7.846;2024-03-23T11:34:19;9.30;99.90
30336;DHT22;17142;47.990;7.846;2024-03-23T11:36:46;9.60;99.90
30336;DHT22;17142;47.990;7.846;2024-03-23T11:39:13;9.90;99.90
30336;DHT22;17142;47.990;7.846;2024-03-23T11:42:05;9.90;99.90
30336;DHT22;17142;47.990;7.846;2024-03-23T11:44:31;9.90;99.90
30336;DHT22;17142;47.990;7.846;2024-03-23T11:47:08;9.80;99.90
30336;DHT22;17142;47.990;7.846;2024-03-23T11:49:34;9.50;99.90
30336;DHT22;17142;47.990;7.846;2024-03-23T11:52:08;9.30;99.90
30336;DHT22;17142;47.990;7.846;2024-03-23T11:54:36;9.30;99.90
30336;DHT22;17142;47.990;7.846;2024-03-23T11:57:04;9.50;99.90
30336;DHT22;17142;47.990;7.846;2024-03-23T12:01:59;10.10;99.90
30336;DHT22;17142;47.990;7.846;2024-03-23T12:04:30;10.50;99.90
30336;DHT22;17142;47.990;7.846;2024-03-23T12:07:13;10.80;99.90
30336;DHT22;17142;47.990;7.846;2024-03-23T12:09:41;10.90;99.90
30336;DHT22;17142;47.990;7.846;2024-03-23T12:12:15;11.20;99.90
30336;DHT22;17142;47.990;7.846;2024-03-23T12:14:44;11.30;99.90
30336;DHT22;17142;47.990;7.846;2024-03-23T12:19:39;11.50;99.90
30336;DHT22;17142;47.990;7.846;2024-03-23T12:22:06;11.50;99.90
30336;DHT22;17142;47.990;7.846;2024-03-23T12:24:33;11.40;99.90
30336;DHT22;17142;47.990;7.846;2024-03-23T12:27:04;11.20;99.90
30336;DHT22;17142;47.990;7.846;2024-03-23T12:29:34;11.10;99.90
30336;DHT22;17142;47.990;7.846;2024-03-23T12:32:01;11.30;99.90
30336;DHT22;17142;47.990;7.846;2024-03-23T12:34:29;11.20;99.90
30336;DHT22;17142;47.990;7.846;2024-03-23T12:36:58;11.10;99.90
30336;DHT22;17142;47.990;7.846;2024-03-23T12:39:23;11.00;99.90
30336;DHT22;17142;47.990;7.846;2024-03-23T12:41:52;11.20;99.90
30336;DHT22;17142;47.990;7.846;2024-03-23T12:44:18;11.20;99.90
30336;DHT22;17142;47.990;7.846;2024-03-23T12:46:46;11.30;99.90
30336;DHT22;17142;47.990;7.846;2024-03-23T12:49:12;11.30;99.90
30336;DHT22;17142;47.990;7.846;2024-03-23T12:51:38;11.30;99.90
30336;DHT22;17142;47.990;7.846;2024-03-23T12:54:04;11.20;99.90
30336;DHT22;17142;47.990;7.846;2024-03-23T12:56:30;11.30;99.90
30336;DHT22;17142;47.990;7.846;2024-03-23T12:58:58;11.40;99.90
30336;DHT22;17142;47.990;7.846;2024-03-23T13:01:24;11.40;99.90
30336;DHT22;17142;47.990;7.846;2024-03-23T13:03:50;11.60;99.90
30336;DHT22;17142;47.990;7.846;2024-03-23T13:06:17;11.50;99.90
30336;DHT22;17142;47.990;7.846;2024-03-23T13:08:47;11.30;99.90
30336;DHT22;17142;47.990;7.846;2024-03-23T13:11:13;11.10;99.90
30336;DHT22;17142;47.990;7.846;2024-03-23T13:13:42;10.90;99.90
30336;DHT22;17142;47.990;7.846;2024-03-23T13:16:10;11.00;99.90
30336;DHT22;17142;47.990;7.846;2024-03-23T13:18:38;11.20;99.90
30336;DHT22;17142;47.990;7.846;2024-03-23T13:21:04;11.60;99.90
30336;DHT22;17142;47.990;7.846;2024-03-23T13:23:29;11.80;99.90
30336;DHT22;17142;47.990;7.846;2024-03-23T13:25:56;11.80;99.90
30336;DHT22;17142;47.990;7.846;2024-03-23T13:28:22;11.60;99.20
30336;DHT22;17142;47.990;7.846;2024-03-23T13:30:55;11.40;97.70
30336;DHT22;17142;47.990;7.846;2024-03-23T13:33:21;11.30;97.50
30336;DHT22;17142;47.990;7.846;2024-03-23T13:35:54;11.50;97.00
30336;DHT22;17142;47.990;7.846;2024-03-23T13:38:20;11.70;96.30
30336;DHT22;17142;47.990;7.846;2024-03-23T13:41:00;11.70;95.20
30336;DHT22;17142;47.990;7.846;2024-03-23T13:43:26;11.60;94.90
30336;DHT22;17142;47.990;7.846;2024-03-23T13:45:57;11.60;95.50
30336;DHT22;17142;47.990;7.846;2024-03-23T13:48:27;11.60;95.00
30336;DHT22;17142;47.990;7.846;2024-03-23T13:51:03;11.70;95.80
30336;DHT22;17142;47.990;7.846;2024-03-23T13:53:31;11.80;95.80
30336;DHT22;17142;47.990;7.846;2024-03-23T13:56:00;11.90;93.30
30336;DHT22;17142;47.990;7.846;2024-03-23T13:58:26;11.90;91.40
30336;DHT22;17142;47.990;7.846;2024-03-23T14:00:53;11.80;91.80
30336;DHT22;17142;47.990;7.846;2024-03-23T14:03:18;11.70;86.80
30336;DHT22;17142;47.990;7.846;2024-03-23T14:05:44;11.80;84.90
30336;DHT22;17142;47.990;7.846;2024-03-23T14:08:10;11.80;80.10
30336;DHT22;17142;47.990;7.846;2024-03-23T14:10:42;11.70;80.50
30336;DHT22;17142;47.990;7.846;2024-03-23T14:13:07;11.70;79.90
30336;DHT22;17142;47.990;7.846;2024-03-23T14:15:33;11.90;76.70
30336;DHT22;17142;47.990;7.846;2024-03-23T14:17:59;11.90;76.30
30336;DHT22;17142;47.990;7.846;2024-03-23T14:20:25;11.90;76.10
30336;DHT22;17142;47.990;7.846;2024-03-23T14:22:51;11.80;77.00
30336;DHT22;17142;47.990;7.846;2024-03-23T14:25:17;11.80;79.00
30336;DHT22;17142;47.990;7.846;2024-03-23T14:27:46;11.60;77.00
30336;DHT22;17142;47.990;7.846;2024-03-23T14:30:12;11.60;80.40
30336;DHT22;17142;47.990;7.846;2024-03-23T14:32:39;11.40;80.40
30336;DHT22;17142;47.990;7.846;2024-03-23T14:35:05;11.20;81.50
30336;DHT22;17142;47.990;7.846;2024-03-23T14:37:36;11.00;80.10
30336;DHT22;17142;47.990;7.846;2024-03-23T14:40:05;10.90;82.50
30336;DHT22;17142;47.990;7.846;2024-03-23T14:42:35;10.80;82.80
30336;DHT22;17142;47.990;7.846;2024-03-23T14:45:01;10.80;82.40
30336;DHT22;17142;47.990;7.846;2024-03-23T14:47:35;10.60;80.60
30336;DHT22;17142;47.990;7.846;2024-03-23T14:50:00;10.40;82.30
30336;DHT22;17142;47.990;7.846;2024-03-23T14:52:26;10.30;85.30
30336;DHT22;17142;47.990;7.846;2024-03-23T14:54:52;10.20;87.50
30336;DHT22;17142;47.990;7.846;2024-03-23T14:57:17;10.00;91.10
30336;DHT22;17142;47.990;7.846;2024-03-23T14:59:45;9.90;92.80
30336;DHT22;17142;47.990;7.846;2024-03-23T15:02:13;10.00;93.00
30336;DHT22;17142;47.990;7.846;2024-03-23T15:04:40;10.10;91.60
30336;DHT22;17142;47.990;7.846;2024-03-23T15:07:09;10.10;91.40
30336;DHT22;17142;47.990;7.846;2024-03-23T15:09:35;10.20;92.00
30336;DHT22;17142;47.990;7.846;2024-03-23T15:12:03;10.20;91.30
30336;DHT22;17142;47.990;7.846;2024-03-23T15:14:31;10.20;91.70
30336;DHT22;17142;47.990;7.846;2024-03-23T15:16:57;10.20;92.10
30336;DHT22;17142;47.990;7.846;2024-03-23T15:19:23;10.10;92.80
30336;DHT22;17142;47.990;7.846;2024-03-23T15:21:48;10.00;93.60
30336;DHT22;17142;47.990;7.846;2024-03-23T15:24:14;10.00;93.70
30336;DHT22;17142;47.990;7.846;2024-03-23T15:26:39;10.00;93.80
30336;DHT22;17142;47.990;7.846;2024-03-23T15:29:07;10.10;94.50
30336;DHT22;17142;47.990;7.846;2024-03-23T15:31:37;10.00;94.80
30336;DHT22;17142;47.990;7.846;2024-03-23T15:34:02;9.80;96.30
30336;DHT22;17142;47.990;7.846;2024-03-23T15:36:29;9.70;96.40
30336;DHT22;17142;47.990;7.846;2024-03-23T15:38:57;9.70;96.90
30336;DHT22;17142;47.990;7.846;2024-03-23T15:41:23;9.60;97.50
30336;DHT22;17142;47.990;7.846;2024-03-23T15:43:50;9.60;97.90
30336;DHT22;17142;47.990;7.846;2024-03-23T15:46:15;9.60;97.40
30336;DHT22;17142;47.990;7.846;2024-03-23T15:48:45;9.60;96.80
30336;DHT22;17142;47.990;7.846;2024-03-23T15:51:17;9.50;98.70
30336;DHT22;17142;47.990;7.846;2024-03-23T15:53:44;9.30;99.90
30336;DHT22;17142;47.990;7.846;2024-03-23T15:56:10;9.20;99.90
30336;DHT22;17142;47.990;7.846;2024-03-23T15:58:38;9.20;99.90
30336;DHT22;17142;47.990;7.846;2024-03-23T16:01:08;9.10;99.90
30336;DHT22;17142;47.990;7.846;2024-03-23T16:03:37;9.10;99.90
30336;DHT22;17142;47.990;7.846;2024-03-23T16:06:04;9.10;99.90
30336;DHT22;17142;47.990;7.846;2024-03-23T16:08:31;9.10;99.90
30336;DHT22;17142;47.990;7.846;2024-03-23T16:11:06;9.10;99.90
30336;DHT22;17142;47.990;7.846;2024-03-23T16:13:33;8.70;99.90
30336;DHT22;17142;47.990;7.846;2024-03-23T16:16:00;7.90;99.90
30336;DHT22;17142;47.990;7.846;2024-03-23T16:18:29;7.20;99.90
30336;DHT22;17142;47.990;7.846;2024-03-23T16:20:57;6.70;99.90
30336;DHT22;17142;47.990;7.846;2024-03-23T16:23:25;6.40;99.90
30336;DHT22;17142;47.990;7.846;2024-03-23T16:25:55;6.30;99.90
30336;DHT22;17142;47.990;7.846;2024-03-23T16:28:35;6.20;99.90
30336;DHT22;17142;47.990;7.846;2024-03-23T16:31:01;6.20;99.90
30336;DHT22;17142;47.990;7.846;2024-03-23T16:33:30;6.20;99.90
30336;DHT22;17142;47.990;7.846;2024-03-23T16:38:35;6.20;99.90
30336;DHT22;17142;47.990;7.846;2024-03-23T16:41:02;6.10;99.90
30336;DHT22;17142;47.990;7.846;2024-03-23T16:43:29;6.10;99.90
30336;DHT22;17142;47.990;7.846;2024-03-23T16:46:02;6.20;99.90
30336;DHT22;17142;47.990;7.846;2024-03-23T16:48:32;6.20;99.90
30336;DHT22;17142;47.990;7.846;2024-03-23T16:51:02;6.30;99.90
30336;DHT22;17142;47.990;7.846;2024-03-23T16:53:29;6.30;99.90
30336;DHT22;17142;47.990;7.846;2024-03-23T16:55:57;6.40;99.90
30336;DHT22;17142;47.990;7.846;2024-03-23T16:58:29;6.60;99.90
30336;DHT22;17142;47.990;7.846;2024-03-23T17:00:55;6.80;99.90
30336;DHT22;17142;47.990;7.846;2024-03-23T17:03:24;7.00;99.90
30336;DHT22;17142;47.990;7.846;2024-03-23T17:05:52;7.10;99.90
30336;DHT22;17142;47.990;7.846;2024-03-23T17:08:21;7.10;99.90
30336;DHT22;17142;47.990;7.846;2024-03-23T17:10:48;7.00;99.90
30336;DHT22;17142;47.990;7.846;2024-03-23T17:13:13;7.00;99.90
30336;DHT22;17142;47.990;7.846;2024-03-23T17:15:46;7.00;99.90
30336;DHT22;17142;47.990;7.846;2024-03-23T17:18:12;6.90;99.90
30336;DHT22;17142;47.990;7.846;2024-03-23T17:20:38;6.90;99.90
30336;DHT22;17142;47.990;7.846;2024-03-23T17:23:06;6.90;99.90
30336;DHT22;17142;47.990;7.846;2024-03-23T17:25:34;6.90;99.90
30336;DHT22;17142;47.990;7.846;2024-03-23T17:28:00;6.80;99.90
30336;DHT22;17142;47.990;7.846;2024-03-23T17:30:28;6.80;99.90
30336;DHT22;17142;47.990;7.846;2024-03-23T17:32:54;6.70;99.90
30336;DHT22;17142;47.990;7.846;2024-03-23T17:35:20;6.70;99.90
30336;DHT22;17142;47.990;7.846;2024-03-23T17:37:47;6.60;99.90
30336;DHT22;17142;47.990;7.846;2024-03-23T17:40:14;6.50;99.90
30336;DHT22;17142;47.990;7.846;2024-03-23T17:42:43;6.50;99.90
30336;DHT22;17142;47.990;7.846;2024-03-23T17:45:08;6.50;99.90
30336;DHT22;17142;47.990;7.846;2024-03-23T17:47:40;6.40;99.90
30336;DHT22;17142;47.990;7.846;2024-03-23T17:50:07;6.30;99.90
30336;DHT22;17142;47.990;7.846;2024-03-23T17:52:36;6.20;99.90
30336;DHT22;17142;47.990;7.846;2024-03-23T17:55:02;6.10;99.90
30336;DHT22;17142;47.990;7.846;2024-03-23T17:57:28;6.10;99.90
30336;DHT22;17142;47.990;7.846;2024-03-23T17:59:54;6.20;99.90
30336;DHT22;17142;47.990;7.846;2024-03-23T18:02:20;6.20;99.90
30336;DHT22;17142;47.990;7.846;2024-03-23T18:04:46;6.20;99.90
30336;DHT22;17142;47.990;7.846;2024-03-23T18:07:12;6.30;99.90
30336;DHT22;17142;47.990;7.846;2024-03-23T18:09:38;6.40;99.90
30336;DHT22;17142;47.990;7.846;2024-03-23T18:12:05;6.50;99.90
30336;DHT22;17142;47.990;7.846;2024-03-23T18:14:31;6.50;99.90
30336;DHT22;17142;47.990;7.846;2024-03-23T18:16:59;6.50;99.90
30336;DHT22;17142;47.990;7.846;2024-03-23T18:19:24;6.50;99.90
30336;DHT22;17142;47.990;7.846;2024-03-23T18:21:52;6.60;99.90
30336;DHT22;17142;47.990;7.846;2024-03-23T18:24:18;6.50;99.90
30336;DHT22;17142;47.990;7.846;2024-03-23T18:26:48;6.50;99.90
30336;DHT22;17142;47.990;7.846;2024-03-23T18:29:14;6.50;99.90
30336;DHT22;17142;47.990;7.846;2024-03-23T18:31:41;6.50;99.90
30336;DHT22;17142;47.990;7.846;2024-03-23T18:34:09;6.50;99.90
30336;DHT22;17142;47.990;7.846;2024-03-23T18:36:38;6.60;99.90
30336;DHT22;17142;47.990;7.846;2024-03-23T18:39:04;6.70;99.90
30336;DHT22;17142;47.990;7.846;2024-03-23T18:41:30;6.70;99.90
30336;DHT22;17142;47.990;7.846;2024-03-23T18:43:56;6.70;99.90
30336;DHT22;17142;47.990;7.846;2024-03-23T18:46:22;6.80;99.90
30336;DHT22;17142;47.990;7.846;2024-03-23T18:48:48;6.70;99.90
30336;DHT22;17142;47.990;7.846;2024-03-23T18:51:16;6.70;99.90
30336;DHT22;17142;47.990;7.846;2024-03-23T18:53:42;6.70;99.90
30336;DHT22;17142;47.990;7.846;2024-03-23T18:56:07;6.70;99.90
30336;DHT22;17142;47.990;7.846;2024-03-23T18:58:33;6.70;99.90
30336;DHT22;17142;47.990;7.846;2024-03-23T19:01:02;6.70;99.90
30336;DHT22;17142;47.990;7.846;2024-03-23T19:03:29;6.70;99.90
30336;DHT22;17142;47.990;7.846;2024-03-23T19:05:59;6.80;99.90
30336;DHT22;17142;47.990;7.846;2024-03-23T19:08:25;6.70;99.90
30336;DHT22;17142;47.990;7.846;2024-03-23T19:10:55;6.80;99.90
30336;DHT22;17142;47.990;7.846;2024-03-23T19:13:24;6.80;99.90
30336;DHT22;17142;47.990;7.846;2024-03-23T19:15:51;6.80;99.90
30336;DHT22;17142;47.990;7.846;2024-03-23T19:18:16;6.80;99.90
30336;DHT22;17142;47.990;7.846;2024-03-23T19:20:43;6.80;99.90
30336;DHT22;17142;47.990;7.846;2024-03-23T19:23:16;6.80;99.90
30336;DHT22;17142;47.990;7.846;2024-03-23T19:26:00;6.80;99.90
30336;DHT22;17142;47.990;7.846;2024-03-23T19:28:28;6.70;99.90
30336;DHT22;17142;47.990;7.846;2024-03-23T19:30:56;6.40;99.90
30336;DHT22;17142;47.990;7.846;2024-03-23T19:33:23;5.70;99.90
30336;DHT22;17142;47.990;7.846;2024-03-23T19:35:56;5.20;99.90
30336;DHT22;17142;47.990;7.846;2024-03-23T19:38:24;4.80;99.90
30336;DHT22;17142;47.990;7.846;2024-03-23T19:40:57;4.70;99.90
30336;DHT22;17142;47.990;7.846;2024-03-23T19:43:25;4.50;99.90
30336;DHT22;17142;47.990;7.846;2024-03-23T19:45:51;4.30;99.90
30336;DHT22;17142;47.990;7.846;2024-03-23T19:48:23;4.10;99.90
30336;DHT22;17142;47.990;7.846;2024-03-23T19:50:57;3.70;99.90
30336;DHT22;17142;47.990;7.846;2024-03-23T19:53:25;3.50;99.90
30336;DHT22;17142;47.990;7.846;2024-03-23T19:55:54;3.40;99.90
30336;DHT22;17142;47.990;7.846;2024-03-23T19:58:20;3.40;99.90
30336;DHT22;17142;47.990;7.846;2024-03-23T20:00:50;3.40;99.90
30336;DHT22;17142;47.990;7.846;2024-03-23T20:03:16;3.50;99.90
30336;DHT22;17142;47.990;7.846;2024-03-23T20:05:42;3.60;99.90
30336;DHT22;17142;47.990;7.846;2024-03-23T20:08:08;3.70;99.90
30336;DHT22;17142;47.990;7.846;2024-03-23T20:10:34;3.80;99.90
30336;DHT22;17142;47.990;7.846;2024-03-23T20:12:59;3.70;99.90
30336;DHT22;17142;47.990;7.846;2024-03-23T20:15:26;3.70;99.90
30336;DHT22;17142;47.990;7.846;2024-03-23T20:17:51;3.80;99.90
30336;DHT22;17142;47.990;7.846;2024-03-23T20:20:17;3.90;99.90
30336;DHT22;17142;47.990;7.846;2024-03-23T20:22:45;3.80;99.90
30336;DHT22;17142;47.990;7.846;2024-03-23T20:25:11;3.90;99.90
30336;DHT22;17142;47.990;7.846;2024-03-23T20:27:36;3.90;99.90
30336;DHT22;17142;47.990;7.846;2024-03-23T20:30:05;4.00;99.90
30336;DHT22;17142;47.990;7.846;2024-03-23T20:32:31;4.10;99.90
30336;DHT22;17142;47.990;7.846;2024-03-23T20:34:57;4.10;99.90
30336;DHT22;17142;47.990;7.846;2024-03-23T20:37:22;4.10;99.90
30336;DHT22;17142;47.990;7.846;2024-03-23T20:39:50;4.10;99.90
30336;DHT22;17142;47.990;7.846;2024-03-23T20:42:18;4.10;99.90
30336;DHT22;17142;47.990;7.846;2024-03-23T20:44:46;4.10;99.90
30336;DHT22;17142;47.990;7.846;2024-03-23T20:47:13;4.20;99.90
30336;DHT22;17142;47.990;7.846;2024-03-23T20:49:39;4.20;99.90
30336;DHT22;17142;47.990;7.846;2024-03-23T20:52:04;4.10;99.90
30336;DHT22;17142;47.990;7.846;2024-03-23T20:54:31;4.00;99.90
30336;DHT22;17142;47.990;7.846;2024-03-23T20:57:00;4.00;99.90
30336;DHT22;17142;47.990;7.846;2024-03-23T20:59:25;4.10;99.90
30336;DHT22;17142;47.990;7.846;2024-03-23T21:01:51;4.10;99.90
30336;DHT22;17142;47.990;7.846;2024-03-23T21:04:17;4.20;99.90
30336;DHT22;17142;47.990;7.846;2024-03-23T21:06:45;4.30;99.90
30336;DHT22;17142;47.990;7.846;2024-03-23T21:09:11;4.30;99.90
30336;DHT22;17142;47.990;7.846;2024-03-23T21:11:36;4.20;99.90
30336;DHT22;17142;47.990;7.846;2024-03-23T21:14:02;4.30;99.90
30336;DHT22;17142;47.990;7.846;2024-03-23T21:16:30;4.30;99.90
30336;DHT22;17142;47.990;7.846;2024-03-23T21:18:58;4.40;99.90
30336;DHT22;17142;47.990;7.846;2024-03-23T21:21:26;4.50;99.90
30336;DHT22;17142;47.990;7.846;2024-03-23T21:23:52;4.60;99.90
30336;DHT22;17142;47.990;7.846;2024-03-23T21:26:18;4.60;99.90
30336;DHT22;17142;47.990;7.846;2024-03-23T21:28:44;4.50;99.90
30336;DHT22;17142;47.990;7.846;2024-03-23T21:31:12;4.60;99.90
30336;DHT22;17142;47.990;7.846;2024-03-23T21:33:38;4.60;99.90
30336;DHT22;17142;47.990;7.846;2024-03-23T21:36:08;4.70;99.90
30336;DHT22;17142;47.990;7.846;2024-03-23T21:38:36;4.70;99.90
30336;DHT22;17142;47.990;7.846;2024-03-23T21:41:02;4.80;99.90
30336;DHT22;17142;47.990;7.846;2024-03-23T21:43:28;4.90;99.90
30336;DHT22;17142;47.990;7.846;2024-03-23T21:46:04;5.00;99.90
30336;DHT22;17142;47.990;7.846;2024-03-23T21:48:33;5.00;99.90
30336;DHT22;17142;47.990;7.846;2024-03-23T21:51:05;5.10;99.90
30336;DHT22;17142;47.990;7.846;2024-03-23T21:53:36;5.10;99.90
30336;DHT22;17142;47.990;7.846;2024-03-23T21:56:04;5.10;99.90
30336;DHT22;17142;47.990;7.846;2024-03-23T21:58:32;5.10;99.90
30336;DHT22;17142;47.990;7.846;2024-03-23T22:00:58;5.10;99.90
30336;DHT22;17142;47.990;7.846;2024-03-23T22:03:24;4.90;99.90
30336;DHT22;17142;47.990;7.846;2024-03-23T22:05:53;4.90;99.90
30336;DHT22;17142;47.990;7.846;2024-03-23T22:08:21;4.80;99.90
30336;DHT22;17142;47.990;7.846;2024-03-23T22:10:47;4.90;99.90
30336;DHT22;17142;47.990;7.846;2024-03-23T22:13:14;4.90;99.90
30336;DHT22;17142;47.990;7.846;2024-03-23T22:15:40;4.90;99.90
30336;DHT22;17142;47.990;7.846;2024-03-23T22:18:06;5.00;99.90
30336;DHT22;17142;47.990;7.846;2024-03-23T22:20:32;5.20;99.90
30336;DHT22;17142;47.990;7.846;2024-03-23T22:22:58;5.30;99.90
30336;DHT22;17142;47.990;7.846;2024-03-23T22:25:24;5.50;99.90
30336;DHT22;17142;47.990;7.846;2024-03-23T22:27:50;5.60;99.90
30336;DHT22;17142;47.990;7.846;2024-03-23T22:30:18;5.60;99.90
30336;DHT22;17142;47.990;7.846;2024-03-23T22:32:44;5.70;99.90
30336;DHT22;17142;47.990;7.846;2024-03-23T22:35:10;5.70;99.90
30336;DHT22;17142;47.990;7.846;2024-03-23T22:37:36;5.80;99.90